sensor_id;sensor_type;location;lat;lon;timestamp;temperature;humidity
71942;DHT22;59997;53.300;-6.260;2023-05-20T00:00:07;11.95;78.64
71942;DHT22;59997;53.300;-6.260;2023-05-20T00:02:33;12.01;78.47
71942;DHT22;59997;53.300;-6.260;2023-05-20T00:04:59;12.08;78.14
71942;DHT22;59997;53.300;-6.260;2023-05-20T00:07:24;12.11;77.69
71942;DHT22;59997;53.300;-6.260;2023-05-20T00:09:50;12.06;77.90
71942;DHT22;59997;53.300;-6.260;2023-05-20T00:12:16;12.08;78.01
71942;DHT22;59997;53.300;-6.260;2023-05-20T00:14:41;12.05;78.04
71942;DHT22;59997;53.300;-6.260;2023-05-20T00:17:07;12.05;78.30
71942;DHT22;59997;53.300;-6.260;2023-05-20T00:19:33;12.05;78.32
71942;DHT22;59997;53.300;-6.260;2023-05-20T00:21:58;12.04;78.28
71942;DHT22;59997;53.300;-6.260;2023-05-20T00:24:24;12.04;78.33
71942;DHT22;59997;53.300;-6.260;2023-05-20T00:26:50;12.12;78.50
71942;DHT22;59997;53.300;-6.260;2023-05-20T00:29:15;12.06;78.43
71942;DHT22;59997;53.300;-6.260;2023-05-20T00:31:41;12.02;78.45
71942;DHT22;59997;53.300;-6.260;2023-05-20T00:34:07;12.02;78.64
71942;DHT22;59997;53.300;-6.260;2023-05-20T00:36:33;11.98;78.84
71942;DHT22;59997;53.300;-6.260;2023-05-20T00:38:59;11.94;78.80
71942;DHT22;59997;53.300;-6.260;2023-05-20T00:41:24;11.85;79.06
71942;DHT22;59997;53.300;-6.260;2023-05-20T00:43:53;11.81;79.26
71942;DHT22;59997;53.300;-6.260;2023-05-20T00:46:19;11.71;79.41
71942;DHT22;59997;53.300;-6.260;2023-05-20T00:48:45;11.64;79.80
71942;DHT22;59997;53.300;-6.260;2023-05-20T00:51:12;11.59;79.96
71942;DHT22;59997;53.300;-6.260;2023-05-20T00:53:38;11.54;80.26
71942;DHT22;59997;53.300;-6.260;2023-05-20T00:56:04;11.60;80.19
71942;DHT22;59997;53.300;-6.260;2023-05-20T00:58:31;11.57;80.31
71942;DHT22;59997;53.300;-6.260;2023-05-20T01:00:57;11.63;80.20
71942;DHT22;59997;53.300;-6.260;2023-05-20T01:03:22;11.62;80.26
71942;DHT22;59997;53.300;-6.260;2023-05-20T01:05:48;11.59;80.31
71942;DHT22;59997;53.300;-6.260;2023-05-20T01:08:13;11.56;80.43
71942;DHT22;59997;53.300;-6.260;2023-05-20T01:10:41;11.54;80.72
71942;DHT22;59997;53.300;-6.260;2023-05-20T01:13:10;11.54;80.74
71942;DHT22;59997;53.300;-6.260;2023-05-20T01:15:40;11.56;81.10
71942;DHT22;59997;53.300;-6.260;2023-05-20T01:18:07;11.57;81.41
71942;DHT22;59997;53.300;-6.260;2023-05-20T01:20:35;11.74;81.38
71942;DHT22;59997;53.300;-6.260;2023-05-20T01:23:01;11.82;81.03
71942;DHT22;59997;53.300;-6.260;2023-05-20T01:25:27;11.82;80.94
71942;DHT22;59997;53.300;-6.260;2023-05-20T01:27:55;11.81;80.87
71942;DHT22;59997;53.300;-6.260;2023-05-20T01:30:22;11.75;80.77
71942;DHT22;59997;53.300;-6.260;2023-05-20T01:32:53;11.71;80.76
71942;DHT22;59997;53.300;-6.260;2023-05-20T01:35:19;11.66;80.77
71942;DHT22;59997;53.300;-6.260;2023-05-20T01:37:46;11.71;81.19
71942;DHT22;59997;53.300;-6.260;2023-05-20T01:40:14;11.71;81.04
71942;DHT22;59997;53.300;-6.260;2023-05-20T01:42:41;11.63;81.24
71942;DHT22;59997;53.300;-6.260;2023-05-20T01:45:07;11.52;81.42
71942;DHT22;59997;53.300;-6.260;2023-05-20T01:47:33;11.43;81.45
71942;DHT22;59997;53.300;-6.260;2023-05-20T01:49:58;11.44;81.98
71942;DHT22;59997;53.300;-6.260;2023-05-20T01:52:24;11.35;82.38
71942;DHT22;59997;53.300;-6.260;2023-05-20T01:54:50;11.36;82.35
71942;DHT22;59997;53.300;-6.260;2023-05-20T01:57:22;11.30;82.64
71942;DHT22;59997;53.300;-6.260;2023-05-20T01:59:47;11.23;82.64
71942;DHT22;59997;53.300;-6.260;2023-05-20T02:02:13;11.22;82.81
71942;DHT22;59997;53.300;-6.260;2023-05-20T02:04:39;11.22;83.15
71942;DHT22;59997;53.300;-6.260;2023-05-20T02:07:06;11.16;83.26
71942;DHT22;59997;53.300;-6.260;2023-05-20T02:09:31;11.11;83.50
71942;DHT22;59997;53.300;-6.260;2023-05-20T02:11:57;11.11;83.77
71942;DHT22;59997;53.300;-6.260;2023-05-20T02:14:23;11.16;83.75
71942;DHT22;59997;53.300;-6.260;2023-05-20T02:16:49;11.15;83.88
71942;DHT22;59997;53.300;-6.260;2023-05-20T02:19:14;11.12;84.02
71942;DHT22;59997;53.300;-6.260;2023-05-20T02:21:47;11.05;84.08
71942;DHT22;59997;53.300;-6.260;2023-05-20T02:24:13;11.00;84.16
71942;DHT22;59997;53.300;-6.260;2023-05-20T02:26:38;10.98;84.53
71942;DHT22;59997;53.300;-6.260;2023-05-20T02:29:04;10.98;84.52
71942;DHT22;59997;53.300;-6.260;2023-05-20T02:31:29;11.00;84.66
71942;DHT22;59997;53.300;-6.260;2023-05-20T02:33:55;10.97;84.58
71942;DHT22;59997;53.300;-6.260;2023-05-20T02:36:21;10.95;84.70
71942;DHT22;59997;53.300;-6.260;2023-05-20T02:38:46;10.94;84.88
71942;DHT22;59997;53.300;-6.260;2023-05-20T02:41:11;10.93;84.80
71942;DHT22;59997;53.300;-6.260;2023-05-20T02:43:37;10.88;84.86
71942;DHT22;59997;53.300;-6.260;2023-05-20T02:46:03;10.83;84.98
71942;DHT22;59997;53.300;-6.260;2023-05-20T02:48:28;10.81;85.11
71942;DHT22;59997;53.300;-6.260;2023-05-20T02:50:54;10.84;85.23
71942;DHT22;59997;53.300;-6.260;2023-05-20T02:53:20;10.83;85.31
71942;DHT22;59997;53.300;-6.260;2023-05-20T02:55:46;10.83;85.41
71942;DHT22;59997;53.300;-6.260;2023-05-20T02:58:12;10.81;85.40
71942;DHT22;59997;53.300;-6.260;2023-05-20T03:00:38;10.83;85.65
71942;DHT22;59997;53.300;-6.260;2023-05-20T03:03:08;10.78;85.93
71942;DHT22;59997;53.300;-6.260;2023-05-20T03:05:37;10.70;86.15
71942;DHT22;59997;53.300;-6.260;2023-05-20T03:08:08;10.70;86.28
71942;DHT22;59997;53.300;-6.260;2023-05-20T03:10:35;10.74;86.18
71942;DHT22;59997;53.300;-6.260;2023-05-20T03:13:01;10.76;86.07
71942;DHT22;59997;53.300;-6.260;2023-05-20T03:15:26;10.81;85.98
71942;DHT22;59997;53.300;-6.260;2023-05-20T03:17:52;10.81;85.88
71942;DHT22;59997;53.300;-6.260;2023-05-20T03:20:18;10.91;85.65
71942;DHT22;59997;53.300;-6.260;2023-05-20T03:22:44;10.95;85.41
71942;DHT22;59997;53.300;-6.260;2023-05-20T03:25:10;10.94;85.26
71942;DHT22;59997;53.300;-6.260;2023-05-20T03:27:35;10.94;85.15
71942;DHT22;59997;53.300;-6.260;2023-05-20T03:30:02;10.98;85.06
71942;DHT22;59997;53.300;-6.260;2023-05-20T03:32:29;10.98;85.02
71942;DHT22;59997;53.300;-6.260;2023-05-20T03:34:54;10.95;84.98
71942;DHT22;59997;53.300;-6.260;2023-05-20T03:37:22;10.97;84.99
71942;DHT22;59997;53.300;-6.260;2023-05-20T03:39:48;11.02;84.82
71942;DHT22;59997;53.300;-6.260;2023-05-20T03:42:13;11.01;84.74
71942;DHT22;59997;53.300;-6.260;2023-05-20T03:44:38;10.98;84.61
71942;DHT22;59997;53.300;-6.260;2023-05-20T03:47:04;11.01;84.59
71942;DHT22;59997;53.300;-6.260;2023-05-20T03:49:30;10.94;84.57
71942;DHT22;59997;53.300;-6.260;2023-05-20T03:51:55;10.87;84.64
71942;DHT22;59997;53.300;-6.260;2023-05-20T03:54:21;10.84;84.73
71942;DHT22;59997;53.300;-6.260;2023-05-20T03:56:46;10.74;84.71
71942;DHT22;59997;53.300;-6.260;2023-05-20T03:59:13;10.70;84.86
71942;DHT22;59997;53.300;-6.260;2023-05-20T04:01:38;10.64;84.85
71942;DHT22;59997;53.300;-6.260;2023-05-20T04:04:04;10.60;84.91
71942;DHT22;59997;53.300;-6.260;2023-05-20T04:06:30;10.57;85.11
71942;DHT22;59997;53.300;-6.260;2023-05-20T04:08:55;10.52;85.27
71942;DHT22;59997;53.300;-6.260;2023-05-20T04:11:21;10.50;85.33
71942;DHT22;59997;53.300;-6.260;2023-05-20T04:13:47;10.52;85.37
71942;DHT22;59997;53.300;-6.260;2023-05-20T04:16:12;10.48;85.40
71942;DHT22;59997;53.300;-6.260;2023-05-20T04:18:39;10.45;85.38
71942;DHT22;59997;53.300;-6.260;2023-05-20T04:21:05;10.39;85.46
71942;DHT22;59997;53.300;-6.260;2023-05-20T04:23:30;10.41;85.67
71942;DHT22;59997;53.300;-6.260;2023-05-20T04:25:56;10.38;85.73
71942;DHT22;59997;53.300;-6.260;2023-05-20T04:28:26;10.34;85.82
71942;DHT22;59997;53.300;-6.260;2023-05-20T04:30:59;10.31;85.93
71942;DHT22;59997;53.300;-6.260;2023-05-20T04:33:26;10.32;86.10
71942;DHT22;59997;53.300;-6.260;2023-05-20T04:35:51;10.38;86.15
71942;DHT22;59997;53.300;-6.260;2023-05-20T04:38:17;10.42;86.12
71942;DHT22;59997;53.300;-6.260;2023-05-20T04:40:42;10.42;86.10
71942;DHT22;59997;53.300;-6.260;2023-05-20T04:43:08;10.36;86.20
71942;DHT22;59997;53.300;-6.260;2023-05-20T04:45:33;10.35;86.20
71942;DHT22;59997;53.300;-6.260;2023-05-20T04:48:00;10.35;86.23
71942;DHT22;59997;53.300;-6.260;2023-05-20T04:50:25;10.39;86.36
71942;DHT22;59997;53.300;-6.260;2023-05-20T04:52:51;10.48;86.39
71942;DHT22;59997;53.300;-6.260;2023-05-20T04:55:16;10.53;86.35
71942;DHT22;59997;53.300;-6.260;2023-05-20T04:57:43;10.57;86.35
71942;DHT22;59997;53.300;-6.260;2023-05-20T05:00:10;10.57;86.38
71942;DHT22;59997;53.300;-6.260;2023-05-20T05:02:37;10.56;86.47
71942;DHT22;59997;53.300;-6.260;2023-05-20T05:05:03;10.57;86.48
71942;DHT22;59997;53.300;-6.260;2023-05-20T05:07:28;10.60;86.45
71942;DHT22;59997;53.300;-6.260;2023-05-20T05:09:54;10.61;86.51
71942;DHT22;59997;53.300;-6.260;2023-05-20T05:12:19;10.63;86.47
71942;DHT22;59997;53.300;-6.260;2023-05-20T05:14:45;10.69;86.46
71942;DHT22;59997;53.300;-6.260;2023-05-20T05:17:10;10.76;86.53
71942;DHT22;59997;53.300;-6.260;2023-05-20T05:19:36;10.77;86.64
71942;DHT22;59997;53.300;-6.260;2023-05-20T05:22:01;10.87;86.53
71942;DHT22;59997;53.300;-6.260;2023-05-20T05:24:27;10.91;86.51
71942;DHT22;59997;53.300;-6.260;2023-05-20T05:26:53;10.98;86.43
71942;DHT22;59997;53.300;-6.260;2023-05-20T05:29:19;11.00;86.47
71942;DHT22;59997;53.300;-6.260;2023-05-20T05:31:44;11.08;86.41
71942;DHT22;59997;53.300;-6.260;2023-05-20T05:34:10;11.11;86.32
71942;DHT22;59997;53.300;-6.260;2023-05-20T05:36:38;11.18;86.32
71942;DHT22;59997;53.300;-6.260;2023-05-20T05:39:04;11.21;86.36
71942;DHT22;59997;53.300;-6.260;2023-05-20T05:41:30;11.28;86.27
71942;DHT22;59997;53.300;-6.260;2023-05-20T05:43:55;11.33;86.22
71942;DHT22;59997;53.300;-6.260;2023-05-20T05:46:21;11.36;86.21
71942;DHT22;59997;53.300;-6.260;2023-05-20T05:48:46;11.40;86.21
71942;DHT22;59997;53.300;-6.260;2023-05-20T05:51:14;11.44;86.14
71942;DHT22;59997;53.300;-6.260;2023-05-20T05:53:40;11.50;85.94
71942;DHT22;59997;53.300;-6.260;2023-05-20T05:56:05;11.59;85.88
71942;DHT22;59997;53.300;-6.260;2023-05-20T05:58:31;11.63;85.74
71942;DHT22;59997;53.300;-6.260;2023-05-20T06:00:57;11.67;85.48
71942;DHT22;59997;53.300;-6.260;2023-05-20T06:03:23;11.77;85.52
71942;DHT22;59997;53.300;-6.260;2023-05-20T06:05:49;11.81;85.41
71942;DHT22;59997;53.300;-6.260;2023-05-20T06:08:14;11.89;85.30
71942;DHT22;59997;53.300;-6.260;2023-05-20T06:10:40;11.94;85.36
71942;DHT22;59997;53.300;-6.260;2023-05-20T06:13:05;11.98;84.81
71942;DHT22;59997;53.300;-6.260;2023-05-20T06:15:31;12.01;84.42
71942;DHT22;59997;53.300;-6.260;2023-05-20T06:17:57;12.06;84.19
71942;DHT22;59997;53.300;-6.260;2023-05-20T06:20:22;12.09;84.23
71942;DHT22;59997;53.300;-6.260;2023-05-20T06:22:48;12.15;83.92
71942;DHT22;59997;53.300;-6.260;2023-05-20T06:25:13;12.18;84.32
71942;DHT22;59997;53.300;-6.260;2023-05-20T06:27:39;12.18;84.35
71942;DHT22;59997;53.300;-6.260;2023-05-20T06:30:05;12.21;84.40
71942;DHT22;59997;53.300;-6.260;2023-05-20T06:32:30;12.22;83.89
71942;DHT22;59997;53.300;-6.260;2023-05-20T06:34:56;12.25;83.75
71942;DHT22;59997;53.300;-6.260;2023-05-20T06:37:21;12.30;83.65
71942;DHT22;59997;53.300;-6.260;2023-05-20T06:39:50;12.30;84.12
71942;DHT22;59997;53.300;-6.260;2023-05-20T06:42:18;12.36;84.11
71942;DHT22;59997;53.300;-6.260;2023-05-20T06:44:45;12.41;84.07
71942;DHT22;59997;53.300;-6.260;2023-05-20T06:47:13;12.41;84.15
71942;DHT22;59997;53.300;-6.260;2023-05-20T06:49:41;12.49;83.48
71942;DHT22;59997;53.300;-6.260;2023-05-20T06:52:07;12.54;83.67
71942;DHT22;59997;53.300;-6.260;2023-05-20T06:54:32;12.58;83.23
71942;DHT22;59997;53.300;-6.260;2023-05-20T06:57:01;12.60;82.99
71942;DHT22;59997;53.300;-6.260;2023-05-20T06:59:26;12.65;83.42
71942;DHT22;59997;53.300;-6.260;2023-05-20T07:01:52;12.69;83.02
71942;DHT22;59997;53.300;-6.260;2023-05-20T07:04:17;12.69;82.58
71942;DHT22;59997;53.300;-6.260;2023-05-20T07:06:43;12.69;82.62
71942;DHT22;59997;53.300;-6.260;2023-05-20T07:09:08;12.75;82.40
71942;DHT22;59997;53.300;-6.260;2023-05-20T07:11:34;12.78;81.88
71942;DHT22;59997;53.300;-6.260;2023-05-20T07:13:59;12.74;82.25
71942;DHT22;59997;53.300;-6.260;2023-05-20T07:16:25;12.74;82.20
71942;DHT22;59997;53.300;-6.260;2023-05-20T07:18:50;12.87;81.88
71942;DHT22;59997;53.300;-6.260;2023-05-20T07:21:16;12.84;81.70
71942;DHT22;59997;53.300;-6.260;2023-05-20T07:23:42;12.87;81.98
71942;DHT22;59997;53.300;-6.260;2023-05-20T07:26:07;12.91;81.26
71942;DHT22;59997;53.300;-6.260;2023-05-20T07:28:33;12.92;80.97
71942;DHT22;59997;53.300;-6.260;2023-05-20T07:30:59;12.96;81.20
71942;DHT22;59997;53.300;-6.260;2023-05-20T07:33:25;12.95;81.20
71942;DHT22;59997;53.300;-6.260;2023-05-20T07:35:50;12.99;81.69
71942;DHT22;59997;53.300;-6.260;2023-05-20T07:38:18;13.05;81.27
71942;DHT22;59997;53.300;-6.260;2023-05-20T07:40:44;13.17;80.68
71942;DHT22;59997;53.300;-6.260;2023-05-20T07:43:10;13.17;80.78
71942;DHT22;59997;53.300;-6.260;2023-05-20T07:45:35;13.24;79.95
71942;DHT22;59997;53.300;-6.260;2023-05-20T07:48:01;13.27;80.76
71942;DHT22;59997;53.300;-6.260;2023-05-20T07:50:27;13.39;80.79
71942;DHT22;59997;53.300;-6.260;2023-05-20T07:52:52;13.53;79.77
71942;DHT22;59997;53.300;-6.260;2023-05-20T07:55:18;13.55;79.55
71942;DHT22;59997;53.300;-6.260;2023-05-20T07:57:43;13.69;79.70
71942;DHT22;59997;53.300;-6.260;2023-05-20T08:00:09;13.78;79.32
71942;DHT22;59997;53.300;-6.260;2023-05-20T08:02:36;13.95;78.95
71942;DHT22;59997;53.300;-6.260;2023-05-20T08:05:02;13.95;78.60
71942;DHT22;59997;53.300;-6.260;2023-05-20T08:07:29;14.01;78.77
71942;DHT22;59997;53.300;-6.260;2023-05-20T08:09:56;14.05;79.01
71942;DHT22;59997;53.300;-6.260;2023-05-20T08:12:21;14.02;78.54
71942;DHT22;59997;53.300;-6.260;2023-05-20T08:14:47;13.98;79.42
71942;DHT22;59997;53.300;-6.260;2023-05-20T08:17:12;13.98;78.27
71942;DHT22;59997;53.300;-6.260;2023-05-20T08:19:38;13.99;79.38
71942;DHT22;59997;53.300;-6.260;2023-05-20T08:22:03;14.01;79.71
71942;DHT22;59997;53.300;-6.260;2023-05-20T08:24:30;14.05;79.92
71942;DHT22;59997;53.300;-6.260;2023-05-20T08:26:56;14.09;79.96
71942;DHT22;59997;53.300;-6.260;2023-05-20T08:29:21;14.17;80.02
71942;DHT22;59997;53.300;-6.260;2023-05-20T08:31:47;14.26;79.83
71942;DHT22;59997;53.300;-6.260;2023-05-20T08:34:12;14.31;78.71
71942;DHT22;59997;53.300;-6.260;2023-05-20T08:36:38;14.34;79.23
71942;DHT22;59997;53.300;-6.260;2023-05-20T08:39:04;14.41;79.69
71942;DHT22;59997;53.300;-6.260;2023-05-20T08:41:30;14.49;79.18
71942;DHT22;59997;53.300;-6.260;2023-05-20T08:43:56;14.60;78.75
71942;DHT22;59997;53.300;-6.260;2023-05-20T08:46:24;14.68;78.40
71942;DHT22;59997;53.300;-6.260;2023-05-20T08:48:50;14.76;78.45
71942;DHT22;59997;53.300;-6.260;2023-05-20T08:51:17;14.80;78.13
71942;DHT22;59997;53.300;-6.260;2023-05-20T08:53:45;14.88;78.07
71942;DHT22;59997;53.300;-6.260;2023-05-20T08:56:11;14.96;77.37
71942;DHT22;59997;53.300;-6.260;2023-05-20T08:58:37;14.97;77.83
71942;DHT22;59997;53.300;-6.260;2023-05-20T09:01:03;15.02;77.78
71942;DHT22;59997;53.300;-6.260;2023-05-20T09:03:31;14.99;78.22
71942;DHT22;59997;53.300;-6.260;2023-05-20T09:06:05;15.06;77.20
71942;DHT22;59997;53.300;-6.260;2023-05-20T09:08:31;15.16;76.12
71942;DHT22;59997;53.300;-6.260;2023-05-20T09:10:57;15.10;76.57
71942;DHT22;59997;53.300;-6.260;2023-05-20T09:13:23;15.17;76.43
71942;DHT22;59997;53.300;-6.260;2023-05-20T09:15:49;15.17;76.85
71942;DHT22;59997;53.300;-6.260;2023-05-20T09:18:15;15.16;76.49
71942;DHT22;59997;53.300;-6.260;2023-05-20T09:20:40;15.14;77.37
71942;DHT22;59997;53.300;-6.260;2023-05-20T09:23:08;15.13;76.87
71942;DHT22;59997;53.300;-6.260;2023-05-20T09:25:34;15.16;77.72
71942;DHT22;59997;53.300;-6.260;2023-05-20T09:28:04;15.23;77.79
71942;DHT22;59997;53.300;-6.260;2023-05-20T09:30:31;15.31;77.21
71942;DHT22;59997;53.300;-6.260;2023-05-20T09:32:59;15.40;77.22
71942;DHT22;59997;53.300;-6.260;2023-05-20T09:35:26;15.44;76.25
71942;DHT22;59997;53.300;-6.260;2023-05-20T09:37:54;15.49;76.64
71942;DHT22;59997;53.300;-6.260;2023-05-20T09:40:27;15.48;77.28
71942;DHT22;59997;53.300;-6.260;2023-05-20T09:42:56;15.59;76.95
71942;DHT22;59997;53.300;-6.260;2023-05-20T09:45:24;15.65;76.05
71942;DHT22;59997;53.300;-6.260;2023-05-20T09:47:50;15.67;76.54
71942;DHT22;59997;53.300;-6.260;2023-05-20T09:50:18;15.62;75.30
71942;DHT22;59997;53.300;-6.260;2023-05-20T09:52:48;15.55;76.18
71942;DHT22;59997;53.300;-6.260;2023-05-20T09:55:18;15.57;76.13
71942;DHT22;59997;53.300;-6.260;2023-05-20T09:57:44;15.63;76.11
71942;DHT22;59997;53.300;-6.260;2023-05-20T10:00:10;15.62;76.90
71942;DHT22;59997;53.300;-6.260;2023-05-20T10:02:43;15.58;76.11
71942;DHT22;59997;53.300;-6.260;2023-05-20T10:05:14;15.70;76.59
71942;DHT22;59997;53.300;-6.260;2023-05-20T10:10:42;15.75;75.65
71942;DHT22;59997;53.300;-6.260;2023-05-20T10:19:44;16.10;74.17
71942;DHT22;59997;53.300;-6.260;2023-05-20T10:21:38;16.27;73.77
71942;DHT22;59997;53.300;-6.260;2023-05-20T10:24:08;16.38;73.88
71942;DHT22;59997;53.300;-6.260;2023-05-20T10:26:41;16.48;72.54
71942;DHT22;59997;53.300;-6.260;2023-05-20T10:29:18;16.69;73.65
71942;DHT22;59997;53.300;-6.260;2023-05-20T10:31:48;16.86;73.82
71942;DHT22;59997;53.300;-6.260;2023-05-20T10:34:15;17.03;73.49
71942;DHT22;59997;53.300;-6.260;2023-05-20T10:39:18;17.12;72.00
71942;DHT22;59997;53.300;-6.260;2023-05-20T10:41:43;17.18;73.13
71942;DHT22;59997;53.300;-6.260;2023-05-20T10:44:09;17.20;68.56
71942;DHT22;59997;53.300;-6.260;2023-05-20T10:46:34;17.27;70.75
71942;DHT22;59997;53.300;-6.260;2023-05-20T10:49:03;17.17;69.54
71942;DHT22;59997;53.300;-6.260;2023-05-20T10:51:29;17.27;70.73
71942;DHT22;59997;53.300;-6.260;2023-05-20T10:53:56;17.35;71.64
71942;DHT22;59997;53.300;-6.260;2023-05-20T10:56:24;17.49;72.12
71942;DHT22;59997;53.300;-6.260;2023-05-20T10:58:51;17.53;70.40
71942;DHT22;59997;53.300;-6.260;2023-05-20T11:01:17;17.55;68.26
71942;DHT22;59997;53.300;-6.260;2023-05-20T11:03:46;17.63;68.55
71942;DHT22;59997;53.300;-6.260;2023-05-20T11:06:14;17.59;69.13
71942;DHT22;59997;53.300;-6.260;2023-05-20T11:08:40;17.45;70.00
71942;DHT22;59997;53.300;-6.260;2023-05-20T11:11:06;17.62;71.39
71942;DHT22;59997;53.300;-6.260;2023-05-20T11:13:32;17.59;69.06
71942;DHT22;59997;53.300;-6.260;2023-05-20T11:15:57;17.76;68.32
71942;DHT22;59997;53.300;-6.260;2023-05-20T11:18:26;17.79;67.61
71942;DHT22;59997;53.300;-6.260;2023-05-20T11:20:55;17.94;69.57
71942;DHT22;59997;53.300;-6.260;2023-05-20T11:23:20;18.05;67.98
71942;DHT22;59997;53.300;-6.260;2023-05-20T11:25:49;18.14;69.19
71942;DHT22;59997;53.300;-6.260;2023-05-20T11:28:15;18.25;67.26
71942;DHT22;59997;53.300;-6.260;2023-05-20T11:30:41;18.16;68.21
71942;DHT22;59997;53.300;-6.260;2023-05-20T11:33:10;18.33;66.86
71942;DHT22;59997;53.300;-6.260;2023-05-20T11:35:37;18.21;66.63
71942;DHT22;59997;53.300;-6.260;2023-05-20T11:38:09;18.40;66.55
71942;DHT22;59997;53.300;-6.260;2023-05-20T11:40:34;18.26;66.89
71942;DHT22;59997;53.300;-6.260;2023-05-20T11:43:01;18.19;68.78
71942;DHT22;59997;53.300;-6.260;2023-05-20T11:45:38;18.07;69.31
71942;DHT22;59997;53.300;-6.260;2023-05-20T11:48:04;17.98;67.49
71942;DHT22;59997;53.300;-6.260;2023-05-20T11:50:41;17.90;70.43
71942;DHT22;59997;53.300;-6.260;2023-05-20T11:53:09;18.09;70.16
71942;DHT22;59997;53.300;-6.260;2023-05-20T11:55:57;17.96;70.21
71942;DHT22;59997;53.300;-6.260;2023-05-20T11:58:24;17.96;69.20
71942;DHT22;59997;53.300;-6.260;2023-05-20T12:00:50;17.93;69.19
71942;DHT22;59997;53.300;-6.260;2023-05-20T12:03:16;18.16;69.31
71942;DHT22;59997;53.300;-6.260;2023-05-20T12:05:42;17.94;67.74
71942;DHT22;59997;53.300;-6.260;2023-05-20T12:08:08;18.16;68.26
71942;DHT22;59997;53.300;-6.260;2023-05-20T12:10:33;18.32;70.87
71942;DHT22;59997;53.300;-6.260;2023-05-20T12:12:59;18.42;70.11
71942;DHT22;59997;53.300;-6.260;2023-05-20T12:15:25;18.40;68.57
71942;DHT22;59997;53.300;-6.260;2023-05-20T12:17:52;18.42;67.98
71942;DHT22;59997;53.300;-6.260;2023-05-20T12:20:21;18.67;67.66
71942;DHT22;59997;53.300;-6.260;2023-05-20T12:22:47;18.67;66.75
71942;DHT22;59997;53.300;-6.260;2023-05-20T12:25:15;18.64;67.10
71942;DHT22;59997;53.300;-6.260;2023-05-20T12:27:41;18.73;69.89
71942;DHT22;59997;53.300;-6.260;2023-05-20T12:30:08;18.75;69.73
71942;DHT22;59997;53.300;-6.260;2023-05-20T12:32:37;18.53;67.85
71942;DHT22;59997;53.300;-6.260;2023-05-20T12:35:03;18.29;66.98
71942;DHT22;59997;53.300;-6.260;2023-05-20T12:37:29;18.00;68.05
71942;DHT22;59997;53.300;-6.260;2023-05-20T12:39:54;18.02;70.99
71942;DHT22;59997;53.300;-6.260;2023-05-20T12:42:20;18.02;70.44
71942;DHT22;59997;53.300;-6.260;2023-05-20T12:44:45;18.19;68.82
71942;DHT22;59997;53.300;-6.260;2023-05-20T12:47:11;18.09;69.22
71942;DHT22;59997;53.300;-6.260;2023-05-20T12:49:37;17.88;68.95
71942;DHT22;59997;53.300;-6.260;2023-05-20T12:52:02;18.04;69.86
71942;DHT22;59997;53.300;-6.260;2023-05-20T12:54:28;18.12;68.58
71942;DHT22;59997;53.300;-6.260;2023-05-20T12:56:53;17.81;67.08
71942;DHT22;59997;53.300;-6.260;2023-05-20T12:59:19;17.87;67.09
71942;DHT22;59997;53.300;-6.260;2023-05-20T13:01:45;18.01;69.06
71942;DHT22;59997;53.300;-6.260;2023-05-20T13:04:10;18.32;67.62
71942;DHT22;59997;53.300;-6.260;2023-05-20T13:06:36;18.35;67.91
71942;DHT22;59997;53.300;-6.260;2023-05-20T13:09:01;18.19;67.29
71942;DHT22;59997;53.300;-6.260;2023-05-20T13:11:27;18.12;66.88
71942;DHT22;59997;53.300;-6.260;2023-05-20T13:13:54;18.35;67.36
71942;DHT22;59997;53.300;-6.260;2023-05-20T13:16:20;18.40;67.59
71942;DHT22;59997;53.300;-6.260;2023-05-20T13:18:46;18.61;67.23
71942;DHT22;59997;53.300;-6.260;2023-05-20T13:21:11;18.78;67.66
71942;DHT22;59997;53.300;-6.260;2023-05-20T13:23:37;18.70;69.36
71942;DHT22;59997;53.300;-6.260;2023-05-20T13:26:03;18.63;68.00
71942;DHT22;59997;53.300;-6.260;2023-05-20T13:28:29;18.67;68.90
71942;DHT22;59997;53.300;-6.260;2023-05-20T13:30:54;18.38;68.17
71942;DHT22;59997;53.300;-6.260;2023-05-20T13:33:20;18.36;70.57
71942;DHT22;59997;53.300;-6.260;2023-05-20T13:35:47;18.32;69.19
71942;DHT22;59997;53.300;-6.260;2023-05-20T13:38:12;18.32;70.99
71942;DHT22;59997;53.300;-6.260;2023-05-20T13:40:38;18.36;70.00
71942;DHT22;59997;53.300;-6.260;2023-05-20T13:43:03;18.07;70.27
71942;DHT22;59997;53.300;-6.260;2023-05-20T13:45:29;17.94;68.58
71942;DHT22;59997;53.300;-6.260;2023-05-20T13:47:54;17.88;71.59
71942;DHT22;59997;53.300;-6.260;2023-05-20T13:50:20;17.94;71.07
71942;DHT22;59997;53.300;-6.260;2023-05-20T13:52:45;18.00;70.40
71942;DHT22;59997;53.300;-6.260;2023-05-20T13:55:11;18.09;70.68
71942;DHT22;59997;53.300;-6.260;2023-05-20T13:57:36;18.11;70.51
71942;DHT22;59997;53.300;-6.260;2023-05-20T14:00:02;18.07;70.15
71942;DHT22;59997;53.300;-6.260;2023-05-20T14:02:29;17.94;69.21
71942;DHT22;59997;53.300;-6.260;2023-05-20T14:04:55;17.91;71.32
71942;DHT22;59997;53.300;-6.260;2023-05-20T14:07:20;17.97;70.27
71942;DHT22;59997;53.300;-6.260;2023-05-20T14:09:46;17.96;67.91
71942;DHT22;59997;53.300;-6.260;2023-05-20T14:12:11;17.84;66.91
71942;DHT22;59997;53.300;-6.260;2023-05-20T14:14:37;17.91;67.09
71942;DHT22;59997;53.300;-6.260;2023-05-20T14:17:03;17.87;66.72
71942;DHT22;59997;53.300;-6.260;2023-05-20T14:19:28;17.96;66.54
71942;DHT22;59997;53.300;-6.260;2023-05-20T14:21:54;17.88;65.80
71942;DHT22;59997;53.300;-6.260;2023-05-20T14:24:19;17.83;66.46
71942;DHT22;59997;53.300;-6.260;2023-05-20T14:26:45;17.88;67.50
71942;DHT22;59997;53.300;-6.260;2023-05-20T14:29:10;17.80;67.26
71942;DHT22;59997;53.300;-6.260;2023-05-20T14:31:36;17.81;66.73
71942;DHT22;59997;53.300;-6.260;2023-05-20T14:34:03;17.73;65.88
71942;DHT22;59997;53.300;-6.260;2023-05-20T14:36:28;17.63;67.87
71942;DHT22;59997;53.300;-6.260;2023-05-20T14:38:54;17.62;67.74
71942;DHT22;59997;53.300;-6.260;2023-05-20T14:41:19;17.55;66.38
71942;DHT22;59997;53.300;-6.260;2023-05-20T14:43:46;17.59;66.99
71942;DHT22;59997;53.300;-6.260;2023-05-20T14:46:11;17.53;67.24
71942;DHT22;59997;53.300;-6.260;2023-05-20T14:48:37;17.50;68.79
71942;DHT22;59997;53.300;-6.260;2023-05-20T14:51:02;17.43;67.45
71942;DHT22;59997;53.300;-6.260;2023-05-20T14:53:28;17.27;69.32
71942;DHT22;59997;53.300;-6.260;2023-05-20T14:55:53;17.35;70.73
71942;DHT22;59997;53.300;-6.260;2023-05-20T14:58:19;17.40;71.19
71942;DHT22;59997;53.300;-6.260;2023-05-20T15:00:45;17.31;69.74
71942;DHT22;59997;53.300;-6.260;2023-05-20T15:03:10;17.21;68.64
71942;DHT22;59997;53.300;-6.260;2023-05-20T15:05:36;17.20;67.84
71942;DHT22;59997;53.300;-6.260;2023-05-20T15:08:02;17.22;70.64
71942;DHT22;59997;53.300;-6.260;2023-05-20T15:10:27;17.18;70.42
71942;DHT22;59997;53.300;-6.260;2023-05-20T15:12:53;17.39;70.48
71942;DHT22;59997;53.300;-6.260;2023-05-20T15:15:20;17.42;68.60
71942;DHT22;59997;53.300;-6.260;2023-05-20T15:17:45;17.53;70.03
71942;DHT22;59997;53.300;-6.260;2023-05-20T15:20:11;17.53;67.80